Observation data for Brownfield on 11/19/2019      Previous  Date       Current Mesonet Observations  Soil Data  Daily Summary Page  Observations in Plain Language
KBWS 190600Z 07003KT 10/M00 A2998 RMK A01 T01011001  RH  050%=      5-min Rain = 0
KBWS 190605Z 07002KT 10/M00 A2999 RMK A01 T01031002  RH  049%=      5-min Rain = 0
KBWS 190610Z 06002KT 10/M00 A2999 RMK A01 T01041002  RH  048%=      5-min Rain = 0
KBWS 190615Z 05003KT 10/00 A2999 RMK A01 T009900-0  RH  051%=      5-min Rain = 0
KBWS 190620Z 06003KT 10/M00 A2999 RMK A01 T00981001  RH  051%=      5-min Rain = 0
KBWS 190625Z 07003KT 10/M00 A2999 RMK A01 T01001002  RH  050%=      5-min Rain = 0
KBWS 190630Z 07003KT 10/M00 A2999 RMK A01 T01021002  RH  049%=      5-min Rain = 0
KBWS 190635Z 08003KT 10/00 A2999 RMK A01 T01030001  RH  050%=      5-min Rain = 0
KBWS 190640Z 09002KT 10/00 A2999 RMK A01 T01010002  RH  051%=      5-min Rain = 0
KBWS 190645Z 16001KT 10/00 A2999 RMK A01 T00950000  RH  052%=      5-min Rain = 0
KBWS 190650Z 23002KT 08/00 A2999 RMK A01 T00760002  RH  060%=      5-min Rain = 0
KBWS 190655Z 24002KT 06/00 A2999 RMK A01 T00640002  RH  065%=      5-min Rain = 0
KBWS 190700Z 25002KT 06/00 A2999 RMK A01 T00620003  RH  067%=      5-min Rain = 0
KBWS 190705Z 25002KT 06/01 A30 RMK A01 T00590005  RH  069%=      5-min Rain = 0
KBWS 190710Z 26000KT 06/01 A30 RMK A01 T00580005  RH  070%=      5-min Rain = 0
KBWS 190715Z 00000KT 06/00 A2999 RMK A01 T00620004  RH  067%=      5-min Rain = 0
KBWS 190720Z 00000KT 07/00 A2999 RMK A01 T00680004  RH  064%=      5-min Rain = 0
KBWS 190725Z 00000KT 07/00 A2999 RMK A01 T00740003  RH  061%=      5-min Rain = 0
KBWS 190730Z 26001KT 07/00 A2999 RMK A01 T00670004  RH  065%=      5-min Rain = 0
KBWS 190735Z 26001KT 07/01 A2999 RMK A01 T00650005  RH  066%=      5-min Rain = 0
KBWS 190740Z 26000KT 07/00 A2999 RMK A01 T00650004  RH  066%=      5-min Rain = 0
KBWS 190745Z 27001KT 06/00 A2999 RMK A01 T00630004  RH  067%=      5-min Rain = 0
KBWS 190750Z 28000KT 06/00 A2999 RMK A01 T00630004  RH  066%=      5-min Rain = 0
KBWS 190755Z 00000KT 06/00 A2999 RMK A01 T00610004  RH  068%=      5-min Rain = 0
KBWS 190800Z 00000KT 06/01 A2999 RMK A01 T00630005  RH  067%=      5-min Rain = 0
KBWS 190805Z 04000KT 07/00 A2999 RMK A01 T00680004  RH  064%=      5-min Rain = 0
KBWS 190810Z 06002KT 07/00 A2998 RMK A01 T00740004  RH  062%=      5-min Rain = 0
KBWS 190815Z 06002KT 07/01 A2998 RMK A01 T00660006  RH  066%=      5-min Rain = 0
KBWS 190820Z 06002KT 06/01 A2998 RMK A01 T00630006  RH  068%=      5-min Rain = 0
KBWS 190825Z 05003KT 06/01 A2998 RMK A01 T00620007  RH  069%=      5-min Rain = 0
KBWS 190830Z 06003KT 06/01 A2998 RMK A01 T00620007  RH  069%=      5-min Rain = 0
KBWS 190835Z 07003KT 07/01 A2998 RMK A01 T00670005  RH  065%=      5-min Rain = 0
KBWS 190840Z 08001G9KT 07/00 A2999 RMK A01 T00700004  RH  064%=      5-min Rain = 0
KBWS 190845Z 24005G11KT 06/01 A2999 RMK A01 T00610006  RH  069%=      5-min Rain = 0
KBWS 190850Z 24002G7KT 07/01 A2999 RMK A01 T00670007  RH  066%=      5-min Rain = 0
KBWS 190855Z 26007KT 07/01 A2999 RMK A01 T00700008  RH  065%=      5-min Rain = 0
KBWS 190900Z 26006KT 07/01 A2999 RMK A01 T00740009  RH  064%=      5-min Rain = 0
KBWS 190905Z 27006KT 07/01 A2999 RMK A01 T00740008  RH  064%=      5-min Rain = 0
KBWS 190910Z 26006KT 08/01 A2999 RMK A01 T00780008  RH  062%=      5-min Rain = 0
KBWS 190915Z 27005KT 08/01 A2999 RMK A01 T00790007  RH  061%=      5-min Rain = 0
KBWS 190920Z 27006KT 08/01 A2999 RMK A01 T00780008  RH  062%=      5-min Rain = 0
KBWS 190925Z 29005KT 08/01 A2999 RMK A01 T00770008  RH  062%=      5-min Rain = 0
KBWS 190930Z 30005KT 07/01 A2999 RMK A01 T00690008  RH  066%=      5-min Rain = 0
KBWS 190935Z 30005KT 07/01 A2999 RMK A01 T00680008  RH  066%=      5-min Rain = 0
KBWS 190940Z 31005KT 07/01 A2999 RMK A01 T00710007  RH  065%=      5-min Rain = 0
KBWS 190945Z 31005KT 07/01 A2999 RMK A01 T00700007  RH  065%=      5-min Rain = 0
KBWS 190950Z 30005KT 08/01 A2998 RMK A01 T00750006  RH  062%=      5-min Rain = 0
KBWS 190955Z 30006KT 07/01 A2998 RMK A01 T00720005  RH  063%=      5-min Rain = 0
KBWS 191000Z 32005KT 07/01 A2998 RMK A01 T00700005  RH  064%=      5-min Rain = 0
KBWS 191005Z 32006KT 07/01 A2998 RMK A01 T00710006  RH  064%=      5-min Rain = 0
KBWS 191010Z 34003KT 08/01 A2998 RMK A01 T00750005  RH  062%=      5-min Rain = 0
KBWS 191015Z 34003KT 08/01 A2998 RMK A01 T00760005  RH  061%=      5-min Rain = 0
KBWS 191020Z 33004KT 07/00 A2998 RMK A01 T00700004  RH  064%=      5-min Rain = 0
KBWS 191025Z 33003KT 07/00 A2998 RMK A01 T00650003  RH  065%=      5-min Rain = 0
KBWS 191030Z 33004KT 06/00 A2998 RMK A01 T00600003  RH  068%=      5-min Rain = 0
KBWS 191035Z 33003KT 06/00 A2998 RMK A01 T00570003  RH  069%=      5-min Rain = 0
KBWS 191040Z 33004KT 05/00 A2998 RMK A01 T00530003  RH  071%=      5-min Rain = 0
KBWS 191045Z 32005KT 05/00 A2998 RMK A01 T00530003  RH  071%=      5-min Rain = 0
KBWS 191050Z 33004KT 06/00 A2998 RMK A01 T00550002  RH  070%=      5-min Rain = 0
KBWS 191055Z 34004KT 05/00 A2998 RMK A01 T00530002  RH  070%=      5-min Rain = 0
KBWS 191100Z 34004KT 05/00 A2997 RMK A01 T00510002  RH  072%=      5-min Rain = 0
KBWS 191105Z 35003KT 05/00 A2997 RMK A01 T00530003  RH  071%=      5-min Rain = 0
KBWS 191110Z 35003KT 06/00 A2997 RMK A01 T00570002  RH  068%=      5-min Rain = 0
KBWS 191115Z 35003KT 06/00 A2997 RMK A01 T00600003  RH  067%=      5-min Rain = 0
KBWS 191120Z 33004KT 06/00 A2997 RMK A01 T00550002  RH  069%=      5-min Rain = 0
KBWS 191125Z 34005KT 05/00 A2996 RMK A01 T00480001  RH  073%=      5-min Rain = 0
KBWS 191130Z 32006KT 05/00 A2996 RMK A01 T00460001  RH  074%=      5-min Rain = 0
KBWS 191135Z 33006KT 04/00 A2996 RMK A01 T00420001  RH  075%=      5-min Rain = 0
KBWS 191140Z 33006KT 04/00 A2996 RMK A01 T00430001  RH  075%=      5-min Rain = 0
KBWS 191145Z 32006KT 04/00 A2996 RMK A01 T00420001  RH  076%=      5-min Rain = 0
KBWS 191150Z 32006KT 04/00 A2996 RMK A01 T00390000  RH  077%=      5-min Rain = 0
KBWS 191155Z 32006KT 04/00 A2996 RMK A01 T003800-0  RH  077%=      5-min Rain = 0
KBWS 191200Z 31006KT 04/00 A2996 RMK A01 T003800-0  RH  077%=      5-min Rain = 0
KBWS 191205Z 31006KT 04/00 A2996 RMK A01 T00380000  RH  077%=      5-min Rain = 0
KBWS 191210Z 30006KT 04/00 A2996 RMK A01 T00390000  RH  077%=      5-min Rain = 0
KBWS 191215Z 30006KT 04/M00 A2997 RMK A01 T00371001  RH  077%=      5-min Rain = 0
KBWS 191220Z 30006KT 04/M00 A2997 RMK A01 T00361002  RH  077%=      5-min Rain = 0
KBWS 191225Z 31006KT 04/M00 A2996 RMK A01 T00351002  RH  078%=      5-min Rain = 0
KBWS 191230Z 31006KT 03/M00 A2997 RMK A01 T00331002  RH  079%=      5-min Rain = 0
KBWS 191235Z 31006KT 03/M00 A2997 RMK A01 T00311001  RH  080%=      5-min Rain = 0
KBWS 191240Z 31006KT 03/M00 A2997 RMK A01 T00311001  RH  080%=      5-min Rain = 0
KBWS 191245Z 31007KT 03/M00 A2997 RMK A01 T00301002  RH  081%=      5-min Rain = 0
KBWS 191250Z 31006KT 03/M00 A2997 RMK A01 T00301001  RH  081%=      5-min Rain = 0
KBWS 191255Z 30006KT 03/M00 A2997 RMK A01 T00311001  RH  080%=      5-min Rain = 0
KBWS 191300Z 31006KT 03/M00 A2997 RMK A01 T00331001  RH  080%=      5-min Rain = 0
KBWS 191305Z 31006KT 03/M00 A2997 RMK A01 T00331001  RH  079%=      5-min Rain = 0
KBWS 191310Z 32006KT 03/M00 A2997 RMK A01 T00301001  RH  081%=      5-min Rain = 0
KBWS 191315Z 32006KT 03/00 A2997 RMK A01 T003300-0  RH  080%=      5-min Rain = 0
KBWS 191320Z 33005KT 04/M00 A2997 RMK A01 T00401001  RH  075%=      5-min Rain = 0
KBWS 191325Z 33005KT 04/M00 A2997 RMK A01 T00421002  RH  074%=      5-min Rain = 0
KBWS 191330Z 34003KT 04/M00 A2997 RMK A01 T00441002  RH  073%=      5-min Rain = 0
KBWS 191335Z 36002KT 05/M00 A2996 RMK A01 T00471003  RH  071%=      5-min Rain = 0
KBWS 191340Z 36002KT 05/M00 A2996 RMK A01 T00491002  RH  071%=      5-min Rain = 0
KBWS 191345Z 35002KT 05/M00 A2997 RMK A01 T00491001  RH  071%=      5-min Rain = 0
KBWS 191350Z 35002KT 05/M00 A2997 RMK A01 T00501001  RH  070%=      5-min Rain = 0
KBWS 191355Z 35003KT 05/M00 A2997 RMK A01 T00511001  RH  070%=      5-min Rain = 0
KBWS 191400Z 34004KT 06/M00 A2997 RMK A01 T00551001  RH  068%=      5-min Rain = 0
KBWS 191405Z 34005KT 06/00 A2997 RMK A01 T00560000  RH  068%=      5-min Rain = 0
KBWS 191410Z 34004KT 06/00 A2997 RMK A01 T00580002  RH  068%=      5-min Rain = 0
KBWS 191415Z 36002KT 06/00 A2997 RMK A01 T00620004  RH  067%=      5-min Rain = 0
KBWS 191420Z 02001KT 07/01 A2997 RMK A01 T00690010  RH  067%=      5-min Rain = 0
KBWS 191425Z 00001KT 08/01 A2997 RMK A01 T00760013  RH  066%=      5-min Rain = 0
KBWS 191430Z 32001KT 08/01 A2998 RMK A01 T00770013  RH  065%=      5-min Rain = 0
KBWS 191435Z 31002KT 08/01 A2998 RMK A01 T00800013  RH  064%=      5-min Rain = 0
KBWS 191440Z 31001KT 08/01 A2998 RMK A01 T00840014  RH  062%=      5-min Rain = 0
KBWS 191445Z 30000KT 09/02 A2998 RMK A01 T00900016  RH  060%=      5-min Rain = 0
KBWS 191450Z 22000KT 10/02 A2998 RMK A01 T00980018  RH  058%=      5-min Rain = 0
KBWS 191455Z 13002KT 10/02 A2998 RMK A01 T01040021  RH  057%=      5-min Rain = 0
KBWS 191500Z 14003KT 10/04 A2998 RMK A01 T01030035  RH  064%=      5-min Rain = 0
KBWS 191505Z 13004KT 11/03 A2998 RMK A01 T01070033  RH  061%=      5-min Rain = 0
KBWS 191510Z 13005KT 11/02 A2998 RMK A01 T01090024  RH  056%=      5-min Rain = 0
KBWS 191515Z 13004KT 11/02 A2998 RMK A01 T01100024  RH  056%=      5-min Rain = 0
KBWS 191520Z 14004KT 11/03 A2998 RMK A01 T01130027  RH  056%=      5-min Rain = 0
KBWS 191525Z 15006KT 12/03 A2998 RMK A01 T01150027  RH  055%=      5-min Rain = 0
KBWS 191530Z 16006KT 12/03 A2998 RMK A01 T01170031  RH  057%=      5-min Rain = 0
KBWS 191535Z 16006KT 12/03 A2998 RMK A01 T01180028  RH  055%=      5-min Rain = 0
KBWS 191540Z 16005KT 12/03 A2998 RMK A01 T01190030  RH  055%=      5-min Rain = 0
KBWS 191545Z 16004KT 12/03 A2998 RMK A01 T01230031  RH  054%=      5-min Rain = 0
KBWS 191550Z 17005KT 13/03 A2998 RMK A01 T01280031  RH  053%=      5-min Rain = 0
KBWS 191555Z 17006KT 13/03 A2998 RMK A01 T01320031  RH  051%=      5-min Rain = 0
KBWS 191600Z 17005KT 14/03 A2998 RMK A01 T01350028  RH  049%=      5-min Rain = 0
KBWS 191605Z 18005KT 14/03 A2998 RMK A01 T01390031  RH  049%=      5-min Rain = 0
KBWS 191610Z 18007KT 15/03 A2998 RMK A01 T01460026  RH  045%=      5-min Rain = 0
KBWS 191615Z 20007KT 15/02 A2998 RMK A01 T01480024  RH  044%=      5-min Rain = 0
KBWS 191620Z 20008KT 15/02 A2998 RMK A01 T01450024  RH  045%=      5-min Rain = 0
KBWS 191625Z 20008KT 15/02 A2998 RMK A01 T01450024  RH  045%=      5-min Rain = 0
KBWS 191630Z 19008KT 15/03 A2998 RMK A01 T01540025  RH  043%=      5-min Rain = 0
KBWS 191635Z 20009KT 16/02 A2998 RMK A01 T01620024  RH  040%=      5-min Rain = 0
KBWS 191640Z 19009KT 17/02 A2998 RMK A01 T01650020  RH  038%=      5-min Rain = 0
KBWS 191645Z 19008KT 17/02 A2998 RMK A01 T01710023  RH  038%=      5-min Rain = 0
KBWS 191650Z 20007KT 17/03 A2997 RMK A01 T01730025  RH  038%=      5-min Rain = 0
KBWS 191655Z 19008KT 18/02 A2997 RMK A01 T01760024  RH  037%=      5-min Rain = 0
KBWS 191700Z 20010KT 18/02 A2997 RMK A01 T01790022  RH  035%=      5-min Rain = 0
KBWS 191705Z 19010KT 18/02 A2997 RMK A01 T01800021  RH  035%=      5-min Rain = 0
KBWS 191710Z 20011KT 18/02 A2997 RMK A01 T01840021  RH  034%=      5-min Rain = 0
KBWS 191715Z 20010KT 19/02 A2997 RMK A01 T01870023  RH  034%=      5-min Rain = 0
KBWS 191720Z 20012KT 19/02 A2996 RMK A01 T01900020  RH  033%=      5-min Rain = 0
KBWS 191725Z 19012KT 19/02 A2996 RMK A01 T01920017  RH  032%=      5-min Rain = 0
KBWS 191730Z 19013KT 20/02 A2996 RMK A01 T01950018  RH  031%=      5-min Rain = 0
KBWS 191735Z 20013KT 20/02 A2996 RMK A01 T01980016  RH  030%=      5-min Rain = 0
KBWS 191740Z 20011KT 21/02 A2995 RMK A01 T02050020  RH  030%=      5-min Rain = 0
KBWS 191745Z 21012KT 21/02 A2995 RMK A01 T02080015  RH  028%=      5-min Rain = 0
KBWS 191750Z 20013KT 21/01 A2995 RMK A01 T02090012  RH  027%=      5-min Rain = 0
KBWS 191755Z 20012KT 21/01 A2995 RMK A01 T02110013  RH  027%=      5-min Rain = 0
KBWS 191800Z 20011KT 21/01 A2994 RMK A01 T02140014  RH  027%=      5-min Rain = 0
KBWS 191805Z 19011KT 22/02 A2994 RMK A01 T02150018  RH  028%=      5-min Rain = 0
KBWS 191810Z 20011KT 22/02 A2994 RMK A01 T02200018  RH  027%=      5-min Rain = 0
KBWS 191815Z 20011KT 22/01 A2993 RMK A01 T02170014  RH  026%=      5-min Rain = 0
KBWS 191820Z 19011KT 22/02 A2993 RMK A01 T02210016  RH  026%=      5-min Rain = 0
KBWS 191825Z 19013KT 22/01 A2993 RMK A01 T02210014  RH  026%=      5-min Rain = 0
KBWS 191830Z 20012KT 22/01 A2993 RMK A01 T02230012  RH  025%=      5-min Rain = 0
KBWS 191835Z 19013G18KT 23/01 A2992 RMK A01 T02270010  RH  024%=      5-min Rain = 0
KBWS 191840Z 19014G19KT 23/01 A2992 RMK A01 T02300009  RH  024%=      5-min Rain = 0
KBWS 191845Z 20014KT 23/01 A2991 RMK A01 T02330011  RH  024%=      5-min Rain = 0
KBWS 191850Z 19014G21KT 24/01 A2991 RMK A01 T02360010  RH  023%=      5-min Rain = 0
KBWS 191855Z 20015KT 24/01 A2991 RMK A01 T02360008  RH  023%=      5-min Rain = 0
KBWS 191900Z 21015KT 24/01 A299 RMK A01 T02370007  RH  022%=      5-min Rain = 0
KBWS 191905Z 20014G19KT 24/01 A299 RMK A01 T02370008  RH  022%=      5-min Rain = 0
KBWS 191910Z 20015KT 24/01 A299 RMK A01 T02400005  RH  021%=      5-min Rain = 0
KBWS 191915Z 20014KT 24/00 A299 RMK A01 T02430003  RH  021%=      5-min Rain = 0
KBWS 191920Z 21014G19KT 25/00 A2989 RMK A01 T02460002  RH  020%=      5-min Rain = 0
KBWS 191925Z 21014G20KT 25/00 A2989 RMK A01 T02450001  RH  020%=      5-min Rain = 0
KBWS 191930Z 20014KT 25/00 A2989 RMK A01 T02450001  RH  020%=      5-min Rain = 0
KBWS 191935Z 21015G20KT 25/M00 A2988 RMK A01 T02461002  RH  020%=      5-min Rain = 0
KBWS 191940Z 20015KT 25/00 A2988 RMK A01 T02470002  RH  020%=      5-min Rain = 0
KBWS 191945Z 21013KT 25/00 A2987 RMK A01 T02460002  RH  020%=      5-min Rain = 0
KBWS 191950Z 20014KT 25/00 A2987 RMK A01 T02490002  RH  020%=      5-min Rain = 0
KBWS 191955Z 20014KT 25/M01 A2987 RMK A01 T02481005  RH  019%=      5-min Rain = 0
KBWS 192000Z 20015G21KT 25/M01 A2986 RMK A01 T02491011  RH  018%=      5-min Rain = 0
KBWS 192005Z 19014KT 25/M01 A2986 RMK A01 T02501008  RH  018%=      5-min Rain = 0
KBWS 192010Z 20014G20KT 25/M01 A2986 RMK A01 T02491009  RH  018%=      5-min Rain = 0
KBWS 192015Z 20014KT 25/M01 A2986 RMK A01 T02501009  RH  018%=      5-min Rain = 0
KBWS 192020Z 20014G19KT 25/M01 A2986 RMK A01 T02471013  RH  018%=      5-min Rain = 0
KBWS 192025Z 20015KT 25/M01 A2986 RMK A01 T02501011  RH  018%=      5-min Rain = 0
KBWS 192030Z 21015G20KT 25/M01 A2985 RMK A01 T02511014  RH  018%=      5-min Rain = 0
KBWS 192035Z 21015G20KT 25/M02 A2985 RMK A01 T02501016  RH  017%=      5-min Rain = 0
KBWS 192040Z 20015KT 25/M02 A2985 RMK A01 T02491016  RH  017%=      5-min Rain = 0
KBWS 192045Z 21015G21KT 25/M02 A2985 RMK A01 T02491017  RH  017%=      5-min Rain = 0
KBWS 192050Z 20015G20KT 25/M02 A2985 RMK A01 T02521015  RH  017%=      5-min Rain = 0
KBWS 192055Z 19014KT 25/M01 A2985 RMK A01 T02531011  RH  018%=      5-min Rain = 0
KBWS 192100Z 19016G22KT 26/M01 A2984 RMK A01 T02551014  RH  017%=      5-min Rain = 0
KBWS 192105Z 20016G21KT 26/M01 A2984 RMK A01 T02551012  RH  017%=      5-min Rain = 0
KBWS 192110Z 20014G19KT 25/M02 A2984 RMK A01 T02501018  RH  017%=      5-min Rain = 0
KBWS 192115Z 19015KT 25/M02 A2984 RMK A01 T02501015  RH  017%=      5-min Rain = 0
KBWS 192120Z 20015G20KT 25/M02 A2984 RMK A01 T02521016  RH  017%=      5-min Rain = 0
KBWS 192125Z 20015KT 25/M02 A2984 RMK A01 T02481017  RH  017%=      5-min Rain = 0
KBWS 192130Z 19015KT 25/M01 A2984 RMK A01 T02481013  RH  018%=      5-min Rain = 0
KBWS 192135Z 20014KT 25/M02 A2984 RMK A01 T02481016  RH  018%=      5-min Rain = 0
KBWS 192140Z 19015G20KT 25/M01 A2984 RMK A01 T02481011  RH  018%=      5-min Rain = 0
KBWS 192145Z 19016G22KT 25/M01 A2983 RMK A01 T02461014  RH  018%=      5-min Rain = 0
KBWS 192150Z 20015KT 24/M02 A2983 RMK A01 T02401017  RH  018%=      5-min Rain = 0
KBWS 192155Z 20014KT 24/M02 A2983 RMK A01 T02361017  RH  019%=      5-min Rain = 0
KBWS 192200Z 20015KT 24/M02 A2983 RMK A01 T02371017  RH  019%=      5-min Rain = 0
KBWS 192205Z 20012KT 24/M01 A2983 RMK A01 T02371013  RH  019%=      5-min Rain = 0
KBWS 192210Z 20011KT 24/M01 A2983 RMK A01 T02371010  RH  020%=      5-min Rain = 0
KBWS 192215Z 20011KT 24/M01 A2983 RMK A01 T02391006  RH  020%=      5-min Rain = 0
KBWS 192220Z 20013G18KT 24/M01 A2983 RMK A01 T02421010  RH  019%=      5-min Rain = 0
KBWS 192225Z 20013KT 24/M01 A2983 RMK A01 T02441012  RH  018%=      5-min Rain = 0
KBWS 192230Z 20012KT 24/M01 A2983 RMK A01 T02441006  RH  019%=      5-min Rain = 0
KBWS 192235Z 20012KT 24/M01 A2983 RMK A01 T02421010  RH  019%=      5-min Rain = 0
KBWS 192240Z 20012KT 24/M01 A2983 RMK A01 T02401011  RH  019%=      5-min Rain = 0
KBWS 192245Z 19012KT 24/M01 A2983 RMK A01 T02371010  RH  019%=      5-min Rain = 0
KBWS 192250Z 19011KT 23/M01 A2983 RMK A01 T02331009  RH  020%=      5-min Rain = 0
KBWS 192255Z 20011KT 23/M01 A2983 RMK A01 T02291012  RH  020%=      5-min Rain = 0
KBWS 192300Z 20010KT 22/M01 A2983 RMK A01 T02241011  RH  021%=      5-min Rain = 0
KBWS 192305Z 20009KT 22/M01 A2983 RMK A01 T02201010  RH  022%=      5-min Rain = 0
KBWS 192310Z 20009KT 22/M01 A2983 RMK A01 T02171011  RH  022%=      5-min Rain = 0
KBWS 192315Z 21009KT 21/M01 A2983 RMK A01 T02141011  RH  022%=      5-min Rain = 0
KBWS 192320Z 20008KT 21/M01 A2983 RMK A01 T02091010  RH  023%=      5-min Rain = 0
KBWS 192325Z 20007KT 20/M01 A2983 RMK A01 T02031007  RH  025%=      5-min Rain = 0
KBWS 192330Z 19008KT 20/M00 A2983 RMK A01 T01961004  RH  026%=      5-min Rain = 0
KBWS 192335Z 19009KT 19/M00 A2983 RMK A01 T01891001  RH  028%=      5-min Rain = 0
KBWS 192340Z 19009KT 18/00 A2983 RMK A01 T018400-0  RH  029%=      5-min Rain = 0
KBWS 192345Z 19010KT 19/M01 A2983 RMK A01 T01871005  RH  028%=      5-min Rain = 0
KBWS 192350Z 22007KT 19/M01 A2983 RMK A01 T01881007  RH  027%=      5-min Rain = 0
KBWS 192355Z 21007KT 18/M01 A2983 RMK A01 T01801007  RH  028%=      5-min Rain = 0
KBWS 200000Z 19007KT 18/M01 A2983 RMK A01 T01751006  RH  030%=      5-min Rain = 0
KBWS 200005Z 20007KT 17/00 A2983 RMK A01 T016600-0  RH  033%=      5-min Rain = 0
KBWS 200010Z 19006KT 16/00 A2983 RMK A01 T016300-0  RH  033%=      5-min Rain = 0
KBWS 200015Z 19006KT 16/M00 A2983 RMK A01 T01621002  RH  033%=      5-min Rain = 0
KBWS 200020Z 20006KT 16/M00 A2983 RMK A01 T01621002  RH  033%=      5-min Rain = 0
KBWS 200025Z 19008KT 16/M00 A2983 RMK A01 T01601001  RH  034%=      5-min Rain = 0
KBWS 200030Z 18008KT 16/00 A2982 RMK A01 T01570001  RH  035%=      5-min Rain = 0
KBWS 200035Z 18007KT 15/01 A2982 RMK A01 T01530006  RH  037%=      5-min Rain = 0
KBWS 200040Z 18008KT 15/01 A2983 RMK A01 T01490008  RH  039%=      5-min Rain = 0
KBWS 200045Z 18008KT 16/00 A2983 RMK A01 T01550004  RH  036%=      5-min Rain = 0
KBWS 200050Z 19009KT 16/00 A2983 RMK A01 T01550003  RH  036%=      5-min Rain = 0
KBWS 200055Z 19009KT 16/00 A2983 RMK A01 T01560001  RH  035%=      5-min Rain = 0
KBWS 200100Z 18010KT 16/M00 A2983 RMK A01 T01621001  RH  033%=      5-min Rain = 0
KBWS 200105Z 18009KT 16/M00 A2983 RMK A01 T01631001  RH  033%=      5-min Rain = 0
KBWS 200110Z 18009KT 16/00 A2983 RMK A01 T01620000  RH  034%=      5-min Rain = 0
KBWS 200115Z 19009KT 16/00 A2983 RMK A01 T01580002  RH  035%=      5-min Rain = 0
KBWS 200120Z 19009KT 16/00 A2983 RMK A01 T01560003  RH  036%=      5-min Rain = 0
KBWS 200125Z 19009KT 16/00 A2984 RMK A01 T01560004  RH  036%=      5-min Rain = 0
KBWS 200130Z 19009KT 16/00 A2984 RMK A01 T01600002  RH  034%=      5-min Rain = 0
KBWS 200135Z 19009KT 16/00 A2984 RMK A01 T01620002  RH  034%=      5-min Rain = 0
KBWS 200140Z 19009KT 16/00 A2984 RMK A01 T01600003  RH  035%=      5-min Rain = 0
KBWS 200145Z 18008KT 16/01 A2984 RMK A01 T01570005  RH  036%=      5-min Rain = 0
KBWS 200150Z 19010KT 16/00 A2984 RMK A01 T01580003  RH  035%=      5-min Rain = 0
KBWS 200155Z 19009KT 16/00 A2984 RMK A01 T01580004  RH  035%=      5-min Rain = 0
KBWS 200200Z 19008KT 15/01 A2984 RMK A01 T01540005  RH  037%=      5-min Rain = 0
KBWS 200205Z 18008KT 15/01 A2984 RMK A01 T01510005  RH  038%=      5-min Rain = 0
KBWS 200210Z 18008KT 15/01 A2984 RMK A01 T01490006  RH  038%=      5-min Rain = 0
KBWS 200215Z 18009KT 15/01 A2984 RMK A01 T01480005  RH  038%=      5-min Rain = 0
KBWS 200220Z 18009KT 15/01 A2984 RMK A01 T01490005  RH  038%=      5-min Rain = 0
KBWS 200225Z 19009KT 15/01 A2984 RMK A01 T01460006  RH  039%=      5-min Rain = 0
KBWS 200230Z 19008KT 14/01 A2984 RMK A01 T01440007  RH  040%=      5-min Rain = 0
KBWS 200235Z 19007KT 14/01 A2984 RMK A01 T01430007  RH  040%=      5-min Rain = 0
KBWS 200240Z 18007KT 14/01 A2984 RMK A01 T01370009  RH  042%=      5-min Rain = 0
KBWS 200245Z 18008KT 13/01 A2984 RMK A01 T01290011  RH  045%=      5-min Rain = 0
KBWS 200250Z 18008KT 13/01 A2984 RMK A01 T01250011  RH  046%=      5-min Rain = 0
KBWS 200255Z 18009KT 12/01 A2984 RMK A01 T01240011  RH  047%=      5-min Rain = 0
KBWS 200300Z 18010KT 13/01 A2984 RMK A01 T01250011  RH  046%=      5-min Rain = 0
KBWS 200305Z 18010KT 13/01 A2984 RMK A01 T01300011  RH  045%=      5-min Rain = 0
KBWS 200310Z 18009KT 13/01 A2984 RMK A01 T01290012  RH  045%=      5-min Rain = 0
KBWS 200315Z 18009KT 13/01 A2984 RMK A01 T01250013  RH  047%=      5-min Rain = 0
KBWS 200320Z 18009KT 12/01 A2985 RMK A01 T01240013  RH  047%=      5-min Rain = 0
KBWS 200325Z 18009KT 12/01 A2985 RMK A01 T01240014  RH  048%=      5-min Rain = 0
KBWS 200330Z 18010KT 13/02 A2985 RMK A01 T01280017  RH  047%=      5-min Rain = 0
KBWS 200335Z 18012KT 13/02 A2985 RMK A01 T01330023  RH  048%=      5-min Rain = 0
KBWS 200340Z 18012KT 14/03 A2985 RMK A01 T01370027  RH  048%=      5-min Rain = 0
KBWS 200345Z 18011KT 14/03 A2985 RMK A01 T01360029  RH  049%=      5-min Rain = 0
KBWS 200350Z 18010KT 13/03 A2985 RMK A01 T01340032  RH  051%=      5-min Rain = 0
KBWS 200355Z 18009KT 13/03 A2985 RMK A01 T01320034  RH  052%=      5-min Rain = 0
KBWS 200400Z 18009KT 13/04 A2985 RMK A01 T01300036  RH  054%=      5-min Rain = 0
KBWS 200405Z 18009KT 13/04 A2985 RMK A01 T01280038  RH  055%=      5-min Rain = 0
KBWS 200410Z 18008KT 13/04 A2985 RMK A01 T01270038  RH  056%=      5-min Rain = 0
KBWS 200415Z 18008KT 13/04 A2985 RMK A01 T01260040  RH  057%=      5-min Rain = 0
KBWS 200420Z 18009KT 13/04 A2985 RMK A01 T01270042  RH  057%=      5-min Rain = 0
KBWS 200425Z 18009KT 13/04 A2985 RMK A01 T01280044  RH  058%=      5-min Rain = 0
KBWS 200430Z 18008KT 13/05 A2985 RMK A01 T01280046  RH  058%=      5-min Rain = 0
KBWS 200435Z 18009KT 13/05 A2985 RMK A01 T01280048  RH  059%=      5-min Rain = 0
KBWS 200440Z 19009KT 13/05 A2985 RMK A01 T01290050  RH  060%=      5-min Rain = 0
KBWS 200445Z 19009KT 13/05 A2986 RMK A01 T01330053  RH  060%=      5-min Rain = 0
KBWS 200450Z 19009KT 14/06 A2985 RMK A01 T01350055  RH  060%=      5-min Rain = 0
KBWS 200455Z 19008KT 14/06 A2985 RMK A01 T01350057  RH  061%=      5-min Rain = 0
KBWS 200500Z 19009KT 14/06 A2985 RMK A01 T01360059  RH  061%=      5-min Rain = 0
KBWS 200505Z 19009KT 14/06 A2986 RMK A01 T01360061  RH  062%=      5-min Rain = 0
KBWS 200510Z 19009KT 14/06 A2985 RMK A01 T01380062  RH  062%=      5-min Rain = 0
KBWS 200515Z 19009KT 14/06 A2985 RMK A01 T01390063  RH  062%=      5-min Rain = 0
KBWS 200520Z 19010G15KT 14/07 A2986 RMK A01 T01420065  RH  061%=      5-min Rain = 0
KBWS 200525Z 19011KT 14/07 A2986 RMK A01 T01440066  RH  061%=      5-min Rain = 0
KBWS 200530Z 19011KT 15/07 A2986 RMK A01 T01450066  RH  061%=      5-min Rain = 0
KBWS 200535Z 19012KT 15/07 A2986 RMK A01 T01450066  RH  061%=      5-min Rain = 0
KBWS 200540Z 19012KT 14/07 A2986 RMK A01 T01440065  RH  061%=      5-min Rain = 0
KBWS 200545Z 19010KT 14/07 A2985 RMK A01 T01430065  RH  061%=      5-min Rain = 0
KBWS 200550Z 19010KT 14/06 A2985 RMK A01 T01410064  RH  062%=      5-min Rain = 0
KBWS 200555Z 19010KT 14/06 A2985 RMK A01 T01390064  RH  062%=      5-min Rain = 0

Page generated in 0.0177 seconds.